Hale, MI

7:44 PM EST on March 01, 2015 (GMT -0500)
Rose Township | Change Station
CLOSE
Current Station
Personal Weather Station
Location: Lupton, MI
Elevation: 922 ft
Nearby Weather Stations

Elev 922 ft 44.43 °N, 84.01 °W | Updated 5 seconds ago

Overcast
Overcast
18.9 °F
Feels Like 19 °F
N
0.0
Wind Variable Wind from South
Gusts 0.0 mph

Today
High -- | Low -- °F
--% Chance of Precip.
Yesterday
High -- | Low -- °F
Precip. -- in
7:12 AM 6:22 PM
Waxing Gibbous, 88% visible
Pressure 30.13 in
Visibility 10.0 miles
Clouds Scattered Clouds 10000 ft
Scattered Clouds 12000 ft
Windchill 19 °F
Dew Point 12 °F
Humidity 74%
Rainfall 0.00 in
Snow Depth Not available.
UV 0 out of 12
Pollen .40 out of 12
Air Quality Not available.
Flu Activity Not available.
METAR KOSC 020033Z AUTO 21005KT 10SM SCT100 SCT120 M05/M10 A3013 RMK AO2 T10501101

More Conditions Fewer Conditions

Pressure 30.13 in
Visibility 10.0 miles
Clouds Scattered Clouds 10000 ft
Scattered Clouds 12000 ft
Windchill 19 °F
Dew Point 12 °F
Humidity 74%
Rainfall 0.00 in
Snow Depth Not available.
UV 0 out of 12
Pollen .40 out of 12
Air Quality Not available.
Flu Activity Not available.
METAR KOSC 020033Z AUTO 21005KT 10SM SCT100 SCT120 M05/M10 A3013 RMK AO2 T10501101

More Conditions Fewer Conditions

Nowcast | as of 6:00 PM EST on March 1, 2015

At 7 PM...cloudy. Temperature 23. Southwest winds 9 mph. At 9 PM...cloudy. Temperature 21. Southwest winds 9 mph. At 11 PM...cloudy. Temperature 20. Southwest winds 9 mph. At 1 am...mostly cloudy. Temperature 18. West winds 8 mph.

×

10-Day Weather Forecast

Almanac

Astronomy

Mar. 01, 2015 Rise Set
Actual Time
Civil Twilight
Nautical Twilight
Astronomical Twilight
Moon
Length of Visible Light
Length of Day
Tomorrow will be .
, % of the Moon is Illuminated

Today's Extremes

State Highs State Lows

Community

WunderPhotos

Upload Photos

1,801,659 photos uploaded!

WunderBlogs® & News

Nearby

Air Quality

  Air Quality AQ Index Pollutant
Not available.

Snow Depth

Station Depth Elevation

Earthquake Activity

City Distance Mag. Time & Date
Minimum magnitude displayed is 2.5.

Coastal Water Temperatures

Place Temperature

Nearby Weather Stations